Time;durP1;ratioP1;P1;durP2;ratioP2;P2;SDS_P1;SDS_P2;PMS_P1;PMS_P2;Temp;Humidity;BMP_temperature;BMP_pressure;BME280_temperature;BME280_humidity;BME280_pressure;Samples;Min_cycle;Max_cycle;Signal;HPM_P1;HPM_P2
2022/12/17 13:38:40;;;;;;;82.12;31.35;;;;;;;;;;3142941;110;28675;-83
2022/12/17 13:44:43;;;;;;;89.83;33.90;;;;;;;;;;3172762;109;28648;-83
2022/12/17 13:50:46;;;;;;;87.53;33.33;;;;;;;;;;3272790;100;28525;-83
2022/12/17 13:56:47;;;;;;;82.02;31.37;;;;;;;;;;3576498;96;28573;-82
2022/12/17 14:02:49;;;;;;;94.32;35.13;;;;;;;;;;3630190;94;28519;-85
2022/12/17 14:08:51;;;;;;;95.67;35.83;;;;;;;;;;3812321;91;44551;-86
2022/12/17 14:14:57;;;;;;;103.60;38.85;;;;;;;;;;4142526;80;28621;-76
2022/12/17 14:20:58;;;;;;;100.87;35.45;;;;;;;;;;4347956;80;28520;-78
2022/12/17 14:26:59;;;;;;;94.45;35.00;;;;;;;;;;4478894;78;28446;-84
2022/12/17 14:33:03;;;;;;;98.15;36.58;;;;;;;;;;4419225;77;28545;-85
2022/12/17 14:39:10;;;;;;;103.15;37.83;;;;;;;;;;4577746;76;43333;-84
2022/12/17 14:45:15;;;;;;;116.33;40.95;;;;;;;;;;4575102;76;44612;-84
2022/12/17 14:51:23;;;;;;;108.12;37.83;;;;;;;;;;4577984;76;28517;-84
2022/12/17 14:57:26;;;;;;;104.58;36.28;;;;;;;;;;4559982;76;28672;-84
2022/12/17 15:03:31;;;;;;;113.62;40.73;;;;;;;;;;4576788;76;44585;-85
2022/12/17 15:09:36;;;;;;;116.33;40.08;;;;;;;;;;4559183;76;28508;-85
2022/12/17 15:15:36;;;;;;;115.32;40.83;;;;;;;;;;4586569;76;44643;-84
2022/12/17 15:21:37;;;;;;;125.95;41.20;;;;;;;;;;4598773;76;28564;-84
2022/12/17 15:27:38;;;;;;;130.78;41.33;;;;;;;;;;4579414;76;28571;-86
2022/12/17 15:33:39;;;;;;;120.60;40.43;;;;;;;;;;4592880;76;43877;-86
2022/12/17 15:39:40;;;;;;;124.72;41.85;;;;;;;;;;4608554;76;43966;-85
2022/12/17 15:45:46;;;;;;;113.80;37.70;;;;;;;;;;4588933;76;44588;-87
2022/12/17 15:51:47;;;;;;;121.13;39.85;;;;;;;;;;4584202;76;44680;-85
2022/12/17 15:57:48;;;;;;;128.75;41.68;;;;;;;;;;4554493;76;43859;-80
2022/12/17 16:03:52;;;;;;;131.85;42.93;;;;;;;;;;4596337;76;28570;-85
2022/12/17 16:09:53;;;;;;;135.35;44.98;;;;;;;;;;4585636;76;44313;-85
2022/12/17 16:15:56;;;;;;;120.62;42.03;;;;;;;;;;4441145;77;43896;-82
2022/12/17 16:21:56;;;;;;;134.15;44.73;;;;;;;;;;4382810;79;44280;-80
2022/12/17 16:27:59;;;;;;;125.20;43.75;;;;;;;;;;4399664;79;43929;-81
2022/12/17 16:34:00;;;;;;;132.57;42.58;;;;;;;;;;4401780;79;44245;-84
2022/12/17 16:40:01;;;;;;;131.95;42.48;;;;;;;;;;4535789;76;44286;-84
2022/12/17 16:46:02;;;;;;;131.37;44.65;;;;;;;;;;4553423;76;44300;-83
2022/12/17 16:52:03;;;;;;;111.50;38.38;;;;;;;;;;4459533;78;44630;-81
2022/12/17 16:58:04;;;;;;;116.97;39.53;;;;;;;;;;4472389;77;44715;-79
2022/12/17 17:04:06;;;;;;;121.10;43.17;;;;;;;;;;4465536;78;44000;-80
2022/12/17 17:10:07;;;;;;;112.57;39.80;;;;;;;;;;4465567;78;44658;-82
2022/12/17 17:16:09;;;;;;;123.62;42.85;;;;;;;;;;4458736;78;28517;-86
2022/12/17 17:22:13;;;;;;;134.82;46.25;;;;;;;;;;4415422;79;44363;-81
2022/12/17 17:28:14;;;;;;;132.78;43.80;;;;;;;;;;4371359;79;44356;-81
2022/12/17 17:34:15;;;;;;;142.18;46.13;;;;;;;;;;4368258;79;44718;-77
2022/12/17 17:40:16;;;;;;;135.28;44.42;;;;;;;;;;4352701;79;44313;-78
2022/12/17 17:46:17;;;;;;;126.07;43.08;;;;;;;;;;4458506;78;44344;-80
2022/12/17 17:52:20;;;;;;;125.82;42.53;;;;;;;;;;4477108;78;43893;-81
2022/12/17 17:58:21;;;;;;;128.05;41.88;;;;;;;;;;4471968;78;43971;-81
2022/12/17 18:04:25;;;;;;;139.47;45.03;;;;;;;;;;4445742;78;44657;-84
2022/12/17 18:10:27;;;;;;;141.07;43.98;;;;;;;;;;4484846;78;44641;-88
2022/12/17 18:16:36;;;;;;;130.00;41.88;;;;;;;;;;4495105;78;44287;-85
2022/12/17 18:22:37;;;;;;;128.05;39.73;;;;;;;;;;4404982;79;43255;-87
2022/12/17 18:28:39;;;;;;;110.12;36.73;;;;;;;;;;4474181;77;44283;-87
2022/12/17 18:34:40;;;;;;;107.27;35.00;;;;;;;;;;4520285;78;43254;-82
2022/12/17 18:40:41;;;;;;;109.72;36.05;;;;;;;;;;4463010;78;44112;-81
2022/12/17 18:46:42;;;;;;;97.40;32.48;;;;;;;;;;4484449;78;44229;-86
2022/12/17 18:52:44;;;;;;;93.03;29.57;;;;;;;;;;4480015;78;44119;-87
2022/12/17 18:58:52;;;;;;;96.17;30.65;;;;;;;;;;4581036;76;28567;-87
2022/12/17 19:04:54;;;;;;;97.82;29.20;;;;;;;;;;4608855;76;44228;-86
2022/12/17 19:10:57;;;;;;;96.92;30.70;;;;;;;;;;4599896;76;44108;-86
2022/12/17 19:16:59;;;;;;;95.38;29.57;;;;;;;;;;4567703;76;44087;-85
2022/12/17 19:23:00;;;;;;;98.97;31.15;;;;;;;;;;4588733;76;28538;-86
2022/12/17 19:29:03;;;;;;;106.25;31.37;;;;;;;;;;4560084;76;43230;-88
2022/12/17 19:35:05;;;;;;;99.85;30.55;;;;;;;;;;4558562;76;28536;-81
2022/12/17 19:41:10;;;;;;;96.30;29.70;;;;;;;;;;4582489;76;44115;-87
2022/12/17 19:47:11;;;;;;;85.85;27.82;;;;;;;;;;4590980;76;28550;-86
2022/12/17 19:53:12;;;;;;;90.07;26.68;;;;;;;;;;4560409;76;43275;-84
2022/12/17 19:59:13;;;;;;;77.45;25.48;;;;;;;;;;4583673;76;43291;-82
2022/12/17 20:05:18;;;;;;;83.60;26.73;;;;;;;;;;4589743;76;43644;-84
2022/12/17 20:11:33;;;;;;;85.32;27.32;;;;;;;;;;4584815;76;28582;-76
2022/12/17 20:17:35;;;;;;;87.97;27.45;;;;;;;;;;4567122;76;43444;-77
2022/12/17 20:23:36;;;;;;;91.72;28.75;;;;;;;;;;4591446;76;43437;-77
2022/12/17 20:29:39;;;;;;;89.03;27.52;;;;;;;;;;4582622;76;43445;-78
2022/12/17 20:35:41;;;;;;;98.15;29.48;;;;;;;;;;4572029;76;44107;-78
2022/12/17 20:41:43;;;;;;;97.55;29.07;;;;;;;;;;4587656;76;44123;-77
2022/12/17 20:47:45;;;;;;;91.92;27.87;;;;;;;;;;4590541;76;43799;-78
2022/12/17 20:53:51;;;;;;;95.05;27.73;;;;;;;;;;4595059;76;44133;-78
2022/12/17 20:59:54;;;;;;;94.05;28.25;;;;;;;;;;4607375;76;44135;-78
2022/12/17 21:05:54;;;;;;;91.47;28.60;;;;;;;;;;4571515;76;44122;-78
2022/12/17 21:11:55;;;;;;;90.87;27.32;;;;;;;;;;4575318;76;43454;-78
2022/12/17 21:17:56;;;;;;;76.17;24.00;;;;;;;;;;4540094;76;43804;-78
2022/12/17 21:23:59;;;;;;;84.28;25.62;;;;;;;;;;4598241;76;43248;-78
2022/12/17 21:30:00;;;;;;;85.05;25.62;;;;;;;;;;4566547;76;42141;-78
2022/12/17 21:36:03;;;;;;;77.53;25.52;;;;;;;;;;4536663;76;43248;-78
2022/12/17 21:48:25;;;;;;;59.48;20.52;;;;;;;;;;4569342;76;44135;-78
2022/12/17 21:54:26;;;;;;;60.75;21.15;;;;;;;;;;4581421;76;44720;-79
2022/12/17 22:00:28;;;;;;;58.65;19.48;;;;;;;;;;4543269;76;44115;-82
2022/12/17 22:06:30;;;;;;;60.75;22.17;;;;;;;;;;4580621;76;44415;-94
2022/12/17 22:18:56;;;;;;;68.62;21.73;;;;;;;;;;4536025;76;43757;-93
2022/12/17 22:25:01;;;;;;;66.02;20.82;;;;;;;;;;4563118;76;28611;-92
2022/12/17 22:37:26;;;;;;;69.95;21.73;;;;;;;;;;4543077;76;43790;-93
2022/12/17 22:43:30;;;;;;;54.42;17.73;;;;;;;;;;4488675;77;44105;-94
2022/12/17 22:49:45;;;;;;;61.68;19.82;;;;;;;;;;4468933;76;44442;-92
2022/12/17 22:55:52;;;;;;;59.77;20.23;;;;;;;;;;4456874;77;44110;-89
2022/12/17 23:01:58;;;;;;;52.35;17.95;;;;;;;;;;4458578;77;28523;-89
2022/12/17 23:08:01;;;;;;;64.37;21.73;;;;;;;;;;4499534;76;44453;-90
2022/12/17 23:14:02;;;;;;;51.63;18.57;;;;;;;;;;4479019;77;43764;-91
2022/12/17 23:20:05;;;;;;;67.55;21.73;;;;;;;;;;4487661;77;43755;-90
2022/12/17 23:26:23;;;;;;;66.55;20.90;;;;;;;;;;4446408;76;43754;-90
2022/12/17 23:32:26;;;;;;;58.50;21.55;;;;;;;;;;4470517;77;44163;-90
2022/12/17 23:38:32;;;;;;;69.17;23.45;;;;;;;;;;4535701;76;43745;-88
2022/12/17 23:44:33;;;;;;;63.70;22.58;;;;;;;;;;4589920;76;43254;-87
2022/12/17 23:50:35;;;;;;;57.13;20.20;;;;;;;;;;4590351;76;44187;-87
2022/12/17 23:56:38;;;;;;;65.47;20.68;;;;;;;;;;4560082;76;43338;-88
